»·PEaware :: AWE691 KONT-KRNM

AWE691 :: KONT-KRNM

FLIGHT INFORMATION

Flight Status: Arrived
Operator:
US Airways
More flights by this operator :: More flights under this callsign
Pilot: Thomas N. (7419)
Aircraft: SAAB 340
(SF34)
More flights by this aircraft type
Origin: KONT Ontario Intl
United States
Destination: KRNM Ramona
United States
More flights between these airports :: More routes between these airports
Route: +PDZ V186 ROBNN V208 JLI
File this flight plan on PilotEdge
Remarks:
Altitude:
(Current/Filed)
11,000ft
Speed:
(Current/Filed)
250kts
Departed: 19-Feb-16 04:02 PM
Arrived: 19-Feb-16 04:28 PM
Distance/Time
Traveled:
70nm/0:26
Distance/Time
To Go:
Arrived

Flight Plot

Page will automatically refresh every two minutes.


Map Options




Map Legend


Flown Route
Filed Route
Departure Airport
Arrival Airport
Navaid (VOR, NDB)
Fix

Horizontal Profiles

Position Reports

Time Latitude Longitude Heading Altitude Ground
Speed
19-Feb-16 15:05 34.059837 -117.599845 34 948ft 0kts
19-Feb-16 15:06 34.059837 -117.599845 34 948ft 0kts
19-Feb-16 15:07 34.059837 -117.599845 34 948ft 0kts
19-Feb-16 15:08 34.059837 -117.599845 34 948ft 0kts
19-Feb-16 15:09 34.059837 -117.599845 34 948ft 0kts
19-Feb-16 15:10 34.059837 -117.599845 34 948ft 0kts
19-Feb-16 15:11 34.059837 -117.599845 34 948ft 0kts
19-Feb-16 15:12 34.059837 -117.599845 34 948ft 0kts
19-Feb-16 15:13 34.059837 -117.599845 34 948ft 0kts
19-Feb-16 15:14 34.059837 -117.599845 34 948ft 0kts
19-Feb-16 15:15 34.059837 -117.599845 34 948ft 0kts
19-Feb-16 15:16 34.059837 -117.599845 34 948ft 0kts
19-Feb-16 15:17 34.059837 -117.599845 34 948ft 0kts
19-Feb-16 15:18 34.059837 -117.599845 34 948ft 0kts
19-Feb-16 15:19 34.059837 -117.599845 34 948ft 0kts
19-Feb-16 15:20 34.059837 -117.599845 34 948ft 0kts
19-Feb-16 15:21 34.059837 -117.599845 34 948ft 0kts
19-Feb-16 15:22 34.059837 -117.599845 34 948ft 0kts
19-Feb-16 15:23 34.059837 -117.599845 34 948ft 0kts
19-Feb-16 15:24 34.059837 -117.599845 34 948ft 0kts
19-Feb-16 15:25 34.059837 -117.599845 34 948ft 0kts
19-Feb-16 15:26 34.059837 -117.599845 34 948ft 0kts
19-Feb-16 15:27 34.059942 -117.599949 283 948ft 3kts
19-Feb-16 15:28 34.059754 -117.600512 138 948ft 0kts
19-Feb-16 15:29 34.059754 -117.600512 138 948ft 0kts
19-Feb-16 15:30 34.059754 -117.600512 138 948ft 0kts
19-Feb-16 15:31 34.059754 -117.600512 138 948ft 0kts
19-Feb-16 15:32 34.059754 -117.600512 138 948ft 0kts
19-Feb-16 15:33 34.059754 -117.600512 138 948ft 0kts
19-Feb-16 15:34 34.059754 -117.600512 138 948ft 0kts
19-Feb-16 15:35 34.059754 -117.600512 138 948ft 0kts
19-Feb-16 15:36 34.059754 -117.600512 138 948ft 0kts
19-Feb-16 15:37 34.059754 -117.600512 138 948ft 0kts
19-Feb-16 15:38 34.059754 -117.600512 138 948ft 0kts
19-Feb-16 15:39 34.059754 -117.600512 138 948ft 0kts
19-Feb-16 15:40 34.059754 -117.600512 138 948ft 0kts
19-Feb-16 15:41 34.059754 -117.600512 138 948ft 0kts
19-Feb-16 15:42 34.059754 -117.600512 138 948ft 0kts
19-Feb-16 15:43 34.059754 -117.600512 138 948ft 0kts
19-Feb-16 15:44 34.059754 -117.600512 138 948ft 0kts
19-Feb-16 15:45 34.059754 -117.600512 138 948ft 0kts
19-Feb-16 15:46 34.059754 -117.600512 138 948ft 0kts
19-Feb-16 15:47 34.059607 -117.600353 138 948ft 4kts
19-Feb-16 15:48 34.059220 -117.597313 91 948ft 14kts
19-Feb-16 15:49 34.059228 -117.592428 88 948ft 16kts
19-Feb-16 15:50 34.059226 -117.590047 90 948ft 12kts
19-Feb-16 15:51 34.059254 -117.585859 82 948ft 13kts
19-Feb-16 15:53 34.057734 -117.582674 179 948ft 6kts
19-Feb-16 15:54 34.057606 -117.582673 180 948ft 0kts
19-Feb-16 15:55 34.056894 -117.583426 270 948ft 14kts
19-Feb-16 15:56 34.056535 -117.616826 268 1312ft 141kts
19-Feb-16 15:57 34.056260 -117.666026 267 2644ft 150kts
19-Feb-16 15:58 34.056497 -117.719814 258 3434ft 170kts
19-Feb-16 15:59 34.023530 -117.715840 107 4357ft 180kts
19-Feb-16 16:00 34.003288 -117.655471 123 5410ft 213kts
19-Feb-16 16:01 33.966454 -117.598071 129 6410ft 226kts
19-Feb-16 16:02 33.925657 -117.540430 130 7405ft 230kts
19-Feb-16 16:03 33.875778 -117.493836 146 8397ft 233kts
19-Feb-16 16:04 33.822717 -117.449880 145 9387ft 236kts
19-Feb-16 16:05 33.770317 -117.406080 145 10366ft 229kts
19-Feb-16 16:06 33.717896 -117.362258 146 11011ft 242kts
19-Feb-16 16:07 33.660607 -117.314521 146 11012ft 258kts
19-Feb-16 16:08 33.601084 -117.264987 146 11010ft 262kts
19-Feb-16 16:09 33.541113 -117.215157 146 11010ft 263kts
19-Feb-16 16:10 33.481274 -117.165488 147 11010ft 263kts
19-Feb-16 16:11 33.413033 -117.147878 173 11011ft 258kts
19-Feb-16 16:12 33.345712 -117.133687 172 10263ft 228kts
19-Feb-16 16:13 33.282367 -117.120311 171 8999ft 239kts
19-Feb-16 16:14 33.216007 -117.105837 165 7514ft 247kts
19-Feb-16 16:15 33.153505 -117.069292 153 5774ft 256kts
19-Feb-16 16:16 33.092152 -117.031085 153 4523ft 242kts
19-Feb-16 16:17 33.048484 -116.988516 93 2812ft 173kts
19-Feb-16 16:18 33.037921 -116.941734 118 2030ft 173kts
19-Feb-16 16:19 33.011338 -116.883125 117 3077ft 213kts
19-Feb-16 16:20 33.021451 -116.841345 352 2638ft 160kts
19-Feb-16 16:21 33.034760 -116.885395 281 1831ft 158kts
19-Feb-16 16:22 33.039566 -116.917998 283 1400ft 24kts
19-Feb-16 16:23 33.040283 -116.919948 12 1400ft 1kts
19-Feb-16 16:24 33.040228 -116.917506 58 1400ft 2kts
19-Feb-16 16:25 33.040977 -116.917591 205 1400ft 0kts
19-Feb-16 16:26 33.040977 -116.917591 205 1400ft 0kts
19-Feb-16 16:27 33.040977 -116.917591 205 1400ft 0kts
19-Feb-16 16:28 33.040977 -116.917591 205 1400ft 0kts
19-Feb-16 16:29 33.040977 -116.917591 205 1400ft 0kts
19-Feb-16 16:30 33.040977 -116.917591 205 1400ft 0kts
19-Feb-16 16:31 33.040977 -116.917591 205 1400ft 0kts
19-Feb-16 16:32 33.040977 -116.917591 205 1400ft 0kts
19-Feb-16 16:33 33.040977 -116.917591 205 1400ft 0kts
19-Feb-16 16:34 33.040977 -116.917591 205 1400ft 0kts
19-Feb-16 16:35 33.040977 -116.917591 205 1400ft 0kts
19-Feb-16 16:36 33.040977 -116.917591 205 1400ft 0kts

Navigation Log

Ident Type
Flight plan parsing failed, navigation log unavailable